createdAt,value
2018-05-14T00:00:28.185Z,99.90
2018-05-14T00:05:29.911Z,99.90
2018-05-14T00:10:32.210Z,99.90
2018-05-14T00:15:33.802Z,99.90
2018-05-14T00:20:35.334Z,99.90
2018-05-14T00:25:37.794Z,99.90
2018-05-14T00:30:39.327Z,99.90
2018-05-14T00:35:40.846Z,99.90
2018-05-14T00:40:42.647Z,99.90
2018-05-14T00:45:44.132Z,99.90
2018-05-14T00:50:46.049Z,99.90
2018-05-14T00:55:47.943Z,99.90
2018-05-14T01:00:49.509Z,99.50
2018-05-14T01:05:51.045Z,99.30
2018-05-14T01:10:52.599Z,98.90
2018-05-14T01:15:54.429Z,98.60
2018-05-14T01:20:56.892Z,99.30
2018-05-14T01:25:59.242Z,98.90
2018-05-14T01:31:00.880Z,98.90
2018-05-14T01:36:03.249Z,98.90
2018-05-14T01:41:04.815Z,98.80
2018-05-14T01:46:06.338Z,98.60
2018-05-14T01:51:08.107Z,98.60
2018-05-14T01:56:09.751Z,98.30
2018-05-14T02:01:12.135Z,98.00
2018-05-14T02:06:14.556Z,98.20
2018-05-14T02:11:16.087Z,98.00
2018-05-14T02:16:18.351Z,97.80
2018-05-14T02:21:19.897Z,97.80
2018-05-14T02:26:21.634Z,97.50
2018-05-14T02:31:23.463Z,96.90
2018-05-14T02:36:25.267Z,97.70
2018-05-14T02:41:27.776Z,97.90
2018-05-14T02:46:29.535Z,98.60
2018-05-14T02:51:31.922Z,97.50
2018-05-14T02:56:34.513Z,97.50
2018-05-14T03:01:36.805Z,97.50
2018-05-14T03:06:38.576Z,97.40
2018-05-14T03:11:41.066Z,98.10
2018-05-14T03:16:43.477Z,98.10
2018-05-14T03:21:45.240Z,98.10
2018-05-14T03:26:46.788Z,97.80
2018-05-14T03:31:49.028Z,95.70
2018-05-14T03:36:50.671Z,95.70
2018-05-14T03:41:52.427Z,93.60
2018-05-14T03:46:54.919Z,94.50
2018-05-14T03:51:56.891Z,94.40
2018-05-14T03:56:59.702Z,94.70
2018-05-14T04:02:28.656Z,94.50
2018-05-14T04:07:30.860Z,92.80
2018-05-14T04:12:32.385Z,92.80
2018-05-14T04:17:35.527Z,92.20
2018-05-14T04:22:37.086Z,92.10
2018-05-14T04:27:38.908Z,91.60
2018-05-14T04:32:40.607Z,90.70
2018-05-14T04:37:42.338Z,89.90
2018-05-14T04:42:44.748Z,88.00
2018-05-14T04:47:46.310Z,88.00
2018-05-14T04:52:48.079Z,88.10
2018-05-14T04:57:49.931Z,87.00
2018-05-14T05:02:51.737Z,87.00
2018-05-14T05:07:53.488Z,86.60
2018-05-14T05:12:56.002Z,84.20
2018-05-14T05:17:57.759Z,84.10
2018-05-14T05:23:00.265Z,82.70
2018-05-14T05:28:01.819Z,82.70
2018-05-14T05:33:04.519Z,81.80
2018-05-14T05:38:06.192Z,81.80
2018-05-14T05:43:07.717Z,81.10
2018-05-14T05:48:09.309Z,82.10
2018-05-14T05:53:11.575Z,80.30
2018-05-14T05:58:13.495Z,80.30
2018-05-14T06:03:15.039Z,81.80
2018-05-14T06:08:17.543Z,84.00
2018-05-14T06:13:19.835Z,84.40
2018-05-14T06:18:21.347Z,84.40
2018-05-14T06:23:22.943Z,85.00
2018-05-14T06:28:24.515Z,85.10
2018-05-14T06:33:26.100Z,84.80
2018-05-14T06:38:28.390Z,85.50
2018-05-14T06:43:30.672Z,86.10
2018-05-14T06:48:33.013Z,83.60
2018-05-14T06:53:34.743Z,83.50
2018-05-14T06:58:36.331Z,79.40
2018-05-14T07:03:37.925Z,76.40
2018-05-14T07:08:39.453Z,74.90
2018-05-14T07:13:41.231Z,72.50
2018-05-14T07:18:42.759Z,72.30
2018-05-14T07:23:44.244Z,72.60
2018-05-14T07:28:46.667Z,73.40
2018-05-14T07:33:48.432Z,73.20
2018-05-14T07:38:50.186Z,72.50
2018-05-14T07:43:52.259Z,70.20
2018-05-14T07:48:55.159Z,70.10
2018-05-14T07:53:57.454Z,70.20
2018-05-14T07:58:59.191Z,70.00
2018-05-14T08:04:00.748Z,68.30
2018-05-14T08:09:02.310Z,68.50
2018-05-14T08:14:04.141Z,71.70
2018-05-14T08:19:05.684Z,72.00
2018-05-14T08:24:07.304Z,73.00
2018-05-14T08:29:09.042Z,72.70
2018-05-14T08:34:11.599Z,70.90
2018-05-14T08:39:13.133Z,70.90
2018-05-14T08:44:14.650Z,70.00
2018-05-14T08:49:16.157Z,68.20
2018-05-14T08:54:17.913Z,68.40
2018-05-14T08:59:19.480Z,71.10
2018-05-14T09:04:21.956Z,75.10
2018-05-14T09:09:24.295Z,78.70
2018-05-14T09:14:25.931Z,78.50
2018-05-14T09:19:28.362Z,87.00
2018-05-14T09:24:29.766Z,87.00
2018-05-14T09:29:32.239Z,86.60
2018-05-14T09:34:33.834Z,86.50
2018-05-14T09:39:36.099Z,89.70
2018-05-14T09:44:37.946Z,89.60
2018-05-14T09:49:39.570Z,90.30
2018-05-14T09:54:42.051Z,92.00
2018-05-14T09:59:44.413Z,93.60
2018-05-14T10:04:46.030Z,93.50
2018-05-14T10:09:47.812Z,93.00
2018-05-14T10:14:49.698Z,91.70
2018-05-14T10:19:51.435Z,89.60
2018-05-14T10:24:53.723Z,85.60
2018-05-14T10:29:56.015Z,82.30
2018-05-14T10:34:58.350Z,77.20
2018-05-14T10:39:59.919Z,77.20
2018-05-14T10:45:01.641Z,73.30
2018-05-14T10:50:04.172Z,66.10
2018-05-14T10:55:05.747Z,66.10
2018-05-14T11:00:07.608Z,67.70
2018-05-14T11:05:09.208Z,72.60
2018-05-14T11:10:10.929Z,72.00
2018-05-14T11:15:12.505Z,68.40
2018-05-14T11:20:14.582Z,64.60
2018-05-14T11:25:16.371Z,64.20
2018-05-14T11:30:18.069Z,64.40
2018-05-14T11:35:19.831Z,65.30
2018-05-14T11:40:21.568Z,64.30
2018-05-14T11:45:23.329Z,62.70
2018-05-14T11:50:25.873Z,65.40
2018-05-14T11:55:27.654Z,65.40
2018-05-14T12:00:29.584Z,63.30
2018-05-14T12:05:31.169Z,63.30
2018-05-14T12:10:32.923Z,62.40
2018-05-14T12:15:34.874Z,62.20
2018-05-14T12:20:36.475Z,61.60
2018-05-14T12:25:45.351Z,61.50
2018-05-14T12:30:46.856Z,60.70
2018-05-14T12:35:49.405Z,60.90
2018-05-14T12:40:51.150Z,60.80
2018-05-14T12:45:52.746Z,60.00
2018-05-14T12:50:54.481Z,60.60
2018-05-14T12:55:56.262Z,58.60
2018-05-14T13:00:57.857Z,59.30
2018-05-14T13:05:59.620Z,58.00
2018-05-14T13:11:01.264Z,58.10
2018-05-14T13:16:03.610Z,56.90
2018-05-14T13:21:06.365Z,56.80
2018-05-14T13:26:08.222Z,56.00
2018-05-14T13:31:09.776Z,54.10
2018-05-14T13:36:12.290Z,52.60
2018-05-14T13:41:13.835Z,52.10
2018-05-14T13:46:15.635Z,51.80
2018-05-14T13:51:17.152Z,49.50
2018-05-14T13:56:18.978Z,49.50
2018-05-14T14:01:20.748Z,48.30
2018-05-14T14:06:22.401Z,47.90
2018-05-14T14:11:24.866Z,60.70
2018-05-14T14:16:26.542Z,60.50
2018-05-14T14:21:28.269Z,71.50
2018-05-14T14:26:29.840Z,74.70
2018-05-14T14:31:31.691Z,80.70
2018-05-14T14:36:33.308Z,91.20
2018-05-14T14:41:34.898Z,90.00
2018-05-14T14:46:36.568Z,88.00
2018-05-14T14:51:38.239Z,89.40
2018-05-14T14:56:39.907Z,91.40
2018-05-14T15:01:41.673Z,90.80
2018-05-14T15:06:43.247Z,91.00
2018-05-14T15:11:44.832Z,91.90
2018-05-14T15:16:46.402Z,89.20
2018-05-14T15:21:48.040Z,88.90
2018-05-14T15:26:49.766Z,88.10
2018-05-14T15:31:52.085Z,83.70
2018-05-14T15:36:53.772Z,83.40
2018-05-14T15:41:55.497Z,80.60
2018-05-14T15:46:57.790Z,73.70
2018-05-14T15:51:59.384Z,73.80
2018-05-14T15:57:01.079Z,74.30
2018-05-14T16:02:02.871Z,75.90
2018-05-14T16:07:04.597Z,78.40
2018-05-14T16:12:06.136Z,82.70
2018-05-14T16:17:08.634Z,80.70
2018-05-14T16:22:10.220Z,80.70
2018-05-14T16:27:11.976Z,81.90
2018-05-14T16:32:13.776Z,79.80
2018-05-14T16:37:15.519Z,81.00
2018-05-14T16:42:17.319Z,78.20
2018-05-14T16:47:19.205Z,76.70
2018-05-14T16:52:20.801Z,77.20
2018-05-14T16:57:22.574Z,80.90
2018-05-14T17:02:24.804Z,80.30
2018-05-14T17:07:26.501Z,80.70
2018-05-14T17:12:28.244Z,82.10
2018-05-14T17:17:29.873Z,81.00
2018-05-14T17:22:31.721Z,78.20
2018-05-14T17:27:33.334Z,78.80
2018-05-14T17:32:35.023Z,77.50
2018-05-14T17:37:37.313Z,78.90
2018-05-14T17:42:38.929Z,78.70
2018-05-14T17:47:40.551Z,77.40
2018-05-14T17:52:42.305Z,73.80
2018-05-14T17:57:44.095Z,74.50
2018-05-14T18:02:46.720Z,76.50
2018-05-14T18:07:48.332Z,76.50
2018-05-14T18:12:49.916Z,75.70
2018-05-14T18:17:52.319Z,66.90
2018-05-14T18:22:55.205Z,60.40
2018-05-14T18:28:00.659Z,57.60
2018-05-14T18:33:03.227Z,57.10
2018-05-14T18:38:04.955Z,57.10
2018-05-14T18:43:06.539Z,55.10
2018-05-14T18:48:08.196Z,54.30
2018-05-14T18:53:09.957Z,54.40
2018-05-14T18:58:11.715Z,53.30
2018-05-14T19:03:17.637Z,52.70
2018-05-14T19:08:19.378Z,52.70
2018-05-14T19:13:21.189Z,52.40
2018-05-14T19:18:22.744Z,52.00
2018-05-14T19:23:32.095Z,50.60
2018-05-14T19:28:39.779Z,52.30
2018-05-14T19:33:47.713Z,54.30
2018-05-14T19:38:49.214Z,53.90
2018-05-14T19:43:50.802Z,52.00
2018-05-14T19:48:52.455Z,52.10
2018-05-14T19:53:54.160Z,52.10
2018-05-14T19:58:56.703Z,52.70
2018-05-14T20:03:59.068Z,52.70
2018-05-14T20:09:00.664Z,52.80
2018-05-14T20:14:02.269Z,52.80
2018-05-14T20:19:04.764Z,54.80
2018-05-14T20:24:07.170Z,58.50
2018-05-14T20:29:09.659Z,59.20
2018-05-14T20:34:18.800Z,58.50
2018-05-14T20:39:21.258Z,56.80
2018-05-14T20:44:22.831Z,57.60
2018-05-14T20:49:24.442Z,54.90
2018-05-14T20:54:25.983Z,54.30
2018-05-14T20:59:27.606Z,54.40
2018-05-14T21:04:29.461Z,53.30
2018-05-14T21:09:31.136Z,53.30
2018-05-14T21:14:32.875Z,51.00
2018-05-14T21:19:35.203Z,49.30
2018-05-14T21:24:36.767Z,48.70
2018-05-14T21:29:38.481Z,47.90
2018-05-14T21:34:40.204Z,47.70
2018-05-14T21:39:42.418Z,47.30
2018-05-14T21:44:44.029Z,46.10
2018-05-14T21:49:46.640Z,46.50
2018-05-14T21:54:48.156Z,46.50
2018-05-14T21:59:49.682Z,46.00
2018-05-14T22:04:51.721Z,46.20
2018-05-14T22:09:53.405Z,45.90
2018-05-14T22:14:54.954Z,45.40
2018-05-14T22:19:56.787Z,45.70
2018-05-14T22:24:58.548Z,46.50
2018-05-14T22:30:00.220Z,47.10
2018-05-14T22:35:01.937Z,45.00
2018-05-14T22:40:03.828Z,45.60
2018-05-14T22:45:05.394Z,45.70
2018-05-14T22:50:06.956Z,46.40
2018-05-14T22:55:08.553Z,45.60
2018-05-14T23:00:10.937Z,47.20
2018-05-14T23:05:13.412Z,45.50
2018-05-14T23:10:15.240Z,45.60
2018-05-14T23:15:16.835Z,46.00
2018-05-14T23:20:18.638Z,45.80
2018-05-14T23:25:20.342Z,46.60
2018-05-14T23:30:22.102Z,46.80
2018-05-14T23:35:23.939Z,47.70
2018-05-14T23:40:26.585Z,48.70
2018-05-14T23:45:28.343Z,48.90
2018-05-14T23:50:30.602Z,49.20
2018-05-14T23:55:32.389Z,49.10
